createdAt,value
2023-04-06T00:00:06.103Z,6.00
2023-04-06T00:02:33.505Z,6.03
2023-04-06T00:05:00.760Z,5.97
2023-04-06T00:07:29.401Z,5.91
2023-04-06T00:09:58.786Z,5.89
2023-04-06T00:12:25.887Z,5.77
2023-04-06T00:14:52.880Z,5.68
2023-04-06T00:17:22.485Z,5.59
2023-04-06T00:19:49.584Z,5.44
2023-04-06T00:22:16.850Z,5.40
2023-04-06T00:24:43.938Z,5.61
2023-04-06T00:27:11.208Z,5.66
2023-04-06T00:29:40.777Z,5.42
2023-04-06T00:32:08.023Z,5.31
2023-04-06T00:34:38.746Z,5.19
2023-04-06T00:37:06.000Z,5.07
2023-04-06T00:39:33.004Z,4.99
2023-04-06T00:42:01.322Z,4.96
2023-04-06T00:44:33.231Z,4.94
2023-04-06T00:47:00.365Z,5.00
2023-04-06T00:49:27.921Z,5.08
2023-04-06T00:51:55.625Z,5.13
2023-04-06T00:54:25.009Z,4.95
2023-04-06T00:56:56.298Z,5.01
2023-04-06T00:59:30.707Z,5.08
2023-04-06T01:02:00.750Z,5.13
2023-04-06T01:04:28.552Z,4.82
2023-04-06T01:06:55.546Z,4.80
2023-04-06T01:09:23.739Z,4.76
2023-04-06T01:11:50.932Z,4.68
2023-04-06T01:14:18.198Z,4.45
2023-04-06T01:16:45.658Z,4.31
2023-04-06T01:19:15.873Z,4.24
2023-04-06T01:21:43.441Z,4.33
2023-04-06T01:24:10.886Z,4.23
2023-04-06T01:26:39.458Z,4.22
2023-04-06T01:29:06.547Z,4.44
2023-04-06T01:31:33.877Z,4.41
2023-04-06T01:34:01.829Z,4.29
2023-04-06T01:36:28.982Z,4.31
2023-04-06T01:38:58.495Z,4.12
2023-04-06T01:41:28.010Z,4.08
2023-04-06T01:43:57.414Z,4.18
2023-04-06T01:46:24.442Z,4.29
2023-04-06T01:48:52.093Z,3.77
2023-04-06T01:51:25.453Z,3.54
2023-04-06T01:53:54.972Z,3.71
2023-04-06T01:56:22.338Z,3.44
2023-04-06T01:58:49.391Z,3.61
2023-04-06T02:01:16.983Z,3.65
2023-04-06T02:03:44.055Z,3.53
2023-04-06T02:06:11.101Z,3.48
2023-04-06T02:08:38.262Z,3.47
2023-04-06T02:11:07.640Z,3.39
2023-04-06T02:13:34.951Z,3.32
2023-04-06T02:16:04.335Z,3.20
2023-04-06T02:18:32.590Z,3.38
2023-04-06T02:21:02.423Z,3.24
2023-04-06T02:23:34.327Z,3.21
2023-04-06T02:26:03.736Z,3.12
2023-04-06T02:28:30.994Z,3.26
2023-04-06T02:30:58.597Z,3.14
2023-04-06T02:33:25.588Z,3.09
2023-04-06T02:35:52.988Z,3.06
2023-04-06T02:38:20.067Z,3.16
2023-04-06T02:40:47.201Z,3.17
2023-04-06T02:43:18.815Z,3.37
2023-04-06T02:45:48.678Z,3.00
2023-04-06T02:48:15.802Z,3.17
2023-04-06T02:50:42.920Z,3.31
2023-04-06T02:53:12.400Z,3.33
2023-04-06T02:55:39.892Z,3.33
2023-04-06T02:58:10.121Z,3.46
2023-04-06T03:00:38.253Z,3.49
2023-04-06T03:03:05.629Z,3.55
2023-04-06T03:05:32.884Z,3.48
2023-04-06T03:07:59.754Z,3.65
2023-04-06T03:10:27.020Z,3.72
2023-04-06T03:12:56.151Z,3.79
2023-04-06T03:15:26.289Z,3.77
2023-04-06T03:17:56.769Z,3.73
2023-04-06T03:20:25.357Z,3.58
2023-04-06T03:22:52.455Z,3.42
2023-04-06T03:25:19.426Z,3.42
2023-04-06T03:27:51.506Z,3.43
2023-04-06T03:30:21.278Z,3.51
2023-04-06T03:32:48.914Z,3.47
2023-04-06T03:35:16.435Z,3.50
2023-04-06T03:37:46.282Z,3.56
2023-04-06T03:40:13.281Z,3.62
2023-04-06T03:42:40.467Z,3.55
2023-04-06T03:45:10.821Z,3.20
2023-04-06T03:47:38.244Z,3.26
2023-04-06T03:50:06.025Z,3.17
2023-04-06T03:52:33.151Z,3.22
2023-04-06T03:55:00.327Z,3.24
2023-04-06T03:57:34.346Z,2.91
2023-04-06T04:00:01.339Z,3.06
2023-04-06T04:02:30.897Z,2.90
2023-04-06T04:05:01.033Z,2.86
2023-04-06T04:07:28.069Z,2.89
2023-04-06T04:09:55.163Z,2.61
2023-04-06T04:12:22.292Z,2.57
2023-04-06T04:14:49.450Z,2.48
2023-04-06T04:17:16.636Z,2.70
2023-04-06T04:19:46.244Z,2.63
2023-04-06T04:22:13.221Z,2.72
2023-04-06T04:24:40.237Z,2.75
2023-04-06T04:27:10.339Z,2.75
2023-04-06T04:29:39.795Z,2.60
2023-04-06T04:32:06.863Z,2.79
2023-04-06T04:34:34.103Z,2.89
2023-04-06T04:37:05.986Z,2.88
2023-04-06T04:39:33.500Z,3.05
2023-04-06T04:42:00.685Z,2.99
2023-04-06T04:44:27.544Z,3.11
2023-04-06T04:46:57.887Z,2.71
2023-04-06T04:49:24.858Z,2.90
2023-04-06T04:51:54.974Z,2.92
2023-04-06T04:54:22.070Z,2.95
2023-04-06T04:56:49.078Z,2.87
2023-04-06T04:59:18.229Z,2.84
2023-04-06T05:01:54.727Z,2.99
2023-04-06T05:04:24.552Z,2.82
2023-04-06T05:06:51.854Z,2.77
2023-04-06T05:09:21.582Z,2.73
2023-04-06T05:11:48.719Z,2.74
2023-04-06T05:14:16.712Z,2.39
2023-04-06T05:16:43.848Z,2.75
2023-04-06T05:19:13.346Z,2.84
2023-04-06T05:21:42.631Z,3.03
2023-04-06T05:24:09.836Z,3.03
2023-04-06T05:26:36.891Z,2.71
2023-04-06T05:29:08.993Z,2.38
2023-04-06T05:31:36.283Z,2.52
2023-04-06T05:34:05.242Z,2.63
2023-04-06T05:36:33.158Z,2.42
2023-04-06T05:39:00.390Z,2.50
2023-04-06T05:41:27.481Z,2.85
2023-04-06T05:43:57.590Z,2.96
2023-04-06T05:46:27.050Z,3.17
2023-04-06T05:48:56.430Z,3.27
2023-04-06T05:51:26.026Z,3.40
2023-04-06T05:53:53.013Z,3.63
2023-04-06T05:56:20.027Z,3.66
2023-04-06T05:58:47.408Z,3.81
2023-04-06T06:01:14.506Z,3.98
2023-04-06T06:03:43.945Z,4.14
2023-04-06T06:06:11.091Z,4.29
2023-04-06T06:08:38.357Z,4.57
2023-04-06T06:11:05.288Z,4.70
2023-04-06T06:13:37.839Z,5.00
2023-04-06T06:16:07.604Z,5.02
2023-04-06T06:18:34.632Z,5.13
2023-04-06T06:21:05.021Z,5.54
2023-04-06T06:23:34.219Z,5.75
2023-04-06T06:26:02.074Z,5.56
2023-04-06T06:28:31.628Z,5.88
2023-04-06T06:30:59.570Z,5.87
2023-04-06T06:33:29.082Z,6.07
2023-04-06T06:35:58.424Z,6.15
2023-04-06T06:38:25.650Z,6.25
2023-04-06T06:40:58.112Z,6.30
2023-04-06T06:43:25.106Z,6.31
2023-04-06T06:45:52.040Z,6.48
2023-04-06T06:48:18.997Z,6.85
2023-04-06T06:50:49.234Z,6.97
2023-04-06T06:53:19.046Z,7.36
2023-04-06T06:55:46.162Z,7.69
2023-04-06T06:58:13.432Z,7.85
2023-04-06T07:00:40.620Z,8.32
2023-04-06T07:03:10.278Z,8.40
2023-04-06T07:05:38.860Z,8.45
2023-04-06T07:08:08.088Z,8.66
2023-04-06T07:10:35.322Z,8.98
2023-04-06T07:13:04.565Z,9.60
2023-04-06T07:15:34.041Z,10.13
2023-04-06T07:18:03.644Z,10.22
2023-04-06T07:20:30.801Z,10.59
2023-04-06T07:23:04.968Z,11.42
2023-04-06T07:25:32.084Z,11.64
2023-04-06T07:27:59.094Z,12.23
2023-04-06T07:30:31.549Z,12.18
2023-04-06T07:33:01.685Z,13.23
2023-04-06T07:35:31.274Z,13.80
2023-04-06T07:37:58.841Z,14.79
2023-04-06T07:40:27.134Z,15.12
2023-04-06T07:42:57.955Z,16.14
2023-04-06T07:45:27.823Z,16.40
2023-04-06T07:47:57.445Z,16.82
2023-04-06T07:50:27.620Z,17.21
2023-04-06T07:52:58.771Z,16.66
2023-04-06T07:55:25.843Z,17.29
2023-04-06T07:57:55.435Z,18.61
2023-04-06T08:00:23.096Z,18.48
2023-04-06T08:02:50.285Z,18.26
2023-04-06T08:05:20.483Z,18.82
2023-04-06T08:07:47.611Z,19.20
2023-04-06T08:10:14.756Z,19.17
2023-04-06T08:12:41.962Z,18.21
2023-04-06T08:15:09.421Z,17.23
2023-04-06T08:17:36.591Z,16.93
2023-04-06T08:20:04.840Z,17.35
2023-04-06T08:22:31.961Z,18.01
2023-04-06T08:25:01.541Z,18.09
2023-04-06T08:27:28.562Z,17.84
2023-04-06T08:29:58.120Z,17.87
2023-04-06T08:32:26.701Z,18.24
2023-04-06T08:34:59.280Z,18.86
2023-04-06T08:37:26.363Z,19.84
2023-04-06T08:39:55.828Z,19.38
2023-04-06T08:42:27.328Z,18.65
2023-04-06T08:44:55.975Z,18.39
2023-04-06T08:47:24.852Z,19.62
2023-04-06T08:49:56.375Z,20.42
2023-04-06T08:52:30.824Z,19.72
2023-04-06T08:55:00.857Z,20.06
2023-04-06T08:57:28.338Z,20.95
2023-04-06T09:00:00.685Z,21.98
2023-04-06T09:02:28.511Z,22.03
2023-04-06T09:04:56.008Z,21.39
2023-04-06T09:07:23.401Z,21.27
2023-04-06T09:09:52.816Z,20.90
2023-04-06T09:12:27.528Z,20.26
2023-04-06T09:14:55.391Z,20.46
2023-04-06T09:17:33.782Z,21.66
2023-04-06T09:20:02.648Z,22.91
2023-04-06T09:22:40.964Z,23.09
2023-04-06T09:25:09.763Z,23.05
2023-04-06T09:27:39.239Z,23.01
2023-04-06T09:30:16.941Z,22.52
2023-04-06T09:32:52.043Z,20.45
2023-04-06T09:35:23.214Z,21.73
2023-04-06T09:37:52.836Z,22.70
2023-04-06T09:40:23.387Z,23.04
2023-04-06T09:42:54.666Z,24.07
2023-04-06T09:45:22.363Z,24.54
2023-04-06T09:47:52.398Z,25.00
2023-04-06T09:50:21.505Z,24.08
2023-04-06T09:52:55.153Z,24.92
2023-04-06T09:55:32.163Z,24.14
2023-04-06T09:58:09.750Z,23.87
2023-04-06T10:00:51.145Z,21.36
2023-04-06T10:03:32.567Z,21.33
2023-04-06T10:06:06.946Z,24.17
2023-04-06T10:08:35.794Z,25.02
2023-04-06T10:11:03.915Z,22.31
2023-04-06T10:13:33.769Z,21.97
2023-04-06T10:16:05.191Z,21.50
2023-04-06T10:18:32.463Z,22.11
2023-04-06T10:21:21.874Z,21.67
2023-04-06T10:23:55.568Z,21.82
2023-04-06T10:26:26.113Z,22.14
2023-04-06T10:29:02.728Z,22.79
2023-04-06T10:31:32.470Z,23.81
2023-04-06T10:34:04.064Z,22.21
2023-04-06T10:36:35.970Z,21.52
2023-04-06T10:39:07.316Z,21.67
2023-04-06T10:41:43.344Z,21.65
2023-04-06T10:44:22.847Z,21.34
2023-04-06T10:47:03.858Z,21.44
2023-04-06T10:49:31.129Z,21.93
2023-04-06T10:51:58.735Z,22.37
2023-04-06T10:54:28.136Z,22.06
2023-04-06T10:56:57.806Z,23.05
2023-04-06T10:59:26.352Z,23.84
2023-04-06T11:01:54.203Z,24.54
2023-04-06T11:04:22.098Z,24.24
2023-04-06T11:06:52.847Z,24.95
2023-04-06T11:09:30.824Z,27.17
2023-04-06T11:11:58.329Z,25.23
2023-04-06T11:14:27.646Z,23.41
2023-04-06T11:16:57.680Z,24.64
2023-04-06T11:19:28.026Z,25.35
2023-04-06T11:21:54.977Z,23.88
2023-04-06T11:24:26.450Z,23.71
2023-04-06T11:27:01.503Z,24.28
2023-04-06T11:29:39.353Z,24.23
2023-04-06T11:32:10.049Z,24.04
2023-04-06T11:34:40.461Z,24.02
2023-04-06T11:37:13.475Z,25.31
2023-04-06T11:39:58.233Z,24.65
2023-04-06T11:42:27.601Z,25.63
2023-04-06T11:45:02.157Z,24.74
2023-04-06T11:47:34.234Z,24.49
2023-04-06T11:50:15.726Z,24.70
2023-04-06T11:52:45.509Z,25.04
2023-04-06T11:55:20.558Z,24.78
2023-04-06T11:57:50.893Z,25.74
2023-04-06T12:00:19.113Z,22.95
2023-04-06T12:02:50.664Z,23.16
2023-04-06T12:05:20.244Z,24.92
2023-04-06T12:07:47.319Z,24.44
2023-04-06T12:10:16.760Z,24.54
2023-04-06T12:12:46.347Z,23.43
2023-04-06T12:15:13.514Z,24.50
2023-04-06T12:17:43.121Z,25.44
2023-04-06T12:20:24.632Z,23.71
2023-04-06T12:22:55.455Z,22.69
2023-04-06T12:25:24.852Z,22.43
2023-04-06T12:27:52.004Z,23.23
2023-04-06T12:30:19.378Z,23.55
2023-04-06T12:32:48.892Z,25.41
2023-04-06T12:35:17.707Z,24.98
2023-04-06T12:37:47.011Z,24.83
2023-04-06T12:40:15.843Z,24.36
2023-04-06T12:42:43.017Z,23.77
2023-04-06T12:45:13.280Z,23.91
2023-04-06T12:47:45.422Z,23.77
2023-04-06T12:50:15.125Z,23.18
2023-04-06T12:52:42.125Z,24.32
2023-04-06T12:55:09.855Z,24.43
2023-04-06T12:57:38.237Z,25.20
2023-04-06T13:00:09.468Z,24.30
2023-04-06T13:02:36.814Z,24.19
2023-04-06T13:05:04.201Z,23.04
2023-04-06T13:07:33.753Z,22.95
2023-04-06T13:10:01.036Z,21.20
2023-04-06T13:12:28.133Z,22.27
2023-04-06T13:14:55.839Z,23.23
2023-04-06T13:17:27.766Z,23.76
2023-04-06T13:19:54.954Z,22.56
2023-04-06T13:22:24.324Z,22.45
2023-04-06T13:24:54.447Z,22.25
2023-04-06T13:27:23.840Z,22.09
2023-04-06T13:29:53.359Z,22.63
2023-04-06T13:32:22.977Z,20.74
2023-04-06T13:34:54.193Z,20.45
2023-04-06T13:37:21.674Z,21.55
2023-04-06T13:39:49.001Z,22.27
2023-04-06T13:42:16.151Z,21.99
2023-04-06T13:44:48.854Z,20.81
2023-04-06T13:47:16.971Z,20.66
2023-04-06T13:49:44.159Z,20.62
2023-04-06T13:52:11.569Z,20.56
2023-04-06T13:54:38.969Z,20.43
2023-04-06T13:57:08.782Z,20.07
2023-04-06T13:59:41.666Z,20.30
2023-04-06T14:02:11.402Z,19.65
2023-04-06T14:04:39.056Z,20.03
2023-04-06T14:07:09.793Z,19.95
2023-04-06T14:09:39.107Z,19.42
2023-04-06T14:12:06.442Z,19.57
2023-04-06T14:14:33.636Z,19.38
2023-04-06T14:17:03.972Z,18.52
2023-04-06T14:19:31.056Z,18.28
2023-04-06T14:22:01.113Z,17.94
2023-04-06T14:24:28.247Z,17.98
2023-04-06T14:26:55.468Z,17.93
2023-04-06T14:29:22.532Z,17.83
2023-04-06T14:31:49.890Z,17.57
2023-04-06T14:34:17.944Z,18.05
2023-04-06T14:36:45.001Z,18.31
2023-04-06T14:39:12.153Z,18.07
2023-04-06T14:41:39.233Z,17.63
2023-04-06T14:44:13.098Z,17.50
2023-04-06T14:46:43.402Z,18.13
2023-04-06T14:49:10.700Z,18.26
2023-04-06T14:51:37.936Z,18.24
2023-04-06T14:54:05.104Z,17.62
2023-04-06T14:56:34.959Z,16.85
2023-04-06T14:59:04.921Z,16.56
2023-04-06T15:01:38.730Z,16.55
2023-04-06T15:04:09.658Z,16.40
2023-04-06T15:06:39.189Z,16.28
2023-04-06T15:09:06.397Z,16.63
2023-04-06T15:11:33.498Z,16.64
2023-04-06T15:14:04.203Z,16.60
2023-04-06T15:16:36.359Z,16.88
2023-04-06T15:19:03.951Z,16.58
2023-04-06T15:21:32.180Z,16.16
2023-04-06T15:23:59.404Z,15.94
2023-04-06T15:26:27.505Z,15.70
2023-04-06T15:28:57.019Z,15.99
2023-04-06T15:31:36.932Z,16.45
2023-04-06T15:34:11.333Z,16.16
2023-04-06T15:36:38.495Z,15.96
2023-04-06T15:39:09.789Z,16.31
2023-04-06T15:41:38.611Z,16.05
2023-04-06T15:44:07.881Z,16.04
2023-04-06T15:46:34.886Z,16.18
2023-04-06T15:49:01.988Z,15.73
2023-04-06T15:51:30.262Z,15.63
2023-04-06T15:53:58.672Z,15.80
2023-04-06T15:56:28.033Z,15.63
2023-04-06T15:58:55.270Z,15.26
2023-04-06T16:01:22.478Z,15.05
2023-04-06T16:03:52.624Z,14.95
2023-04-06T16:06:19.664Z,15.09
2023-04-06T16:08:46.856Z,15.16
2023-04-06T16:11:16.463Z,15.01
2023-04-06T16:13:47.293Z,15.07
2023-04-06T16:16:20.878Z,15.13
2023-04-06T16:18:52.565Z,15.10
2023-04-06T16:21:20.062Z,15.42
2023-04-06T16:23:51.800Z,15.45
2023-04-06T16:26:19.090Z,15.03
2023-04-06T16:28:48.362Z,14.88
2023-04-06T16:31:23.934Z,14.94
2023-04-06T16:33:54.459Z,14.79
2023-04-06T16:36:28.694Z,14.84
2023-04-06T16:39:02.437Z,14.57
2023-04-06T16:41:29.613Z,14.36
2023-04-06T16:44:01.258Z,14.47
2023-04-06T16:46:38.553Z,14.39
2023-04-06T16:49:07.105Z,14.52
2023-04-06T16:51:34.977Z,14.18
2023-04-06T16:54:02.949Z,14.20
2023-04-06T16:56:30.188Z,14.08
2023-04-06T16:58:57.203Z,14.33
2023-04-06T17:01:28.992Z,14.63
2023-04-06T17:03:56.848Z,14.27
2023-04-06T17:06:24.228Z,14.26
2023-04-06T17:08:52.320Z,14.36
2023-04-06T17:11:25.540Z,14.65
2023-04-06T17:13:55.510Z,14.66
2023-04-06T17:16:27.053Z,14.49
2023-04-06T17:18:56.083Z,14.11
2023-04-06T17:21:23.270Z,14.10
2023-04-06T17:23:51.001Z,13.97
2023-04-06T17:26:18.713Z,13.76
2023-04-06T17:28:45.923Z,13.74
2023-04-06T17:31:16.740Z,13.78
2023-04-06T17:33:47.664Z,13.68
2023-04-06T17:36:15.011Z,13.84
2023-04-06T17:38:45.782Z,13.74
2023-04-06T17:41:14.198Z,13.42
2023-04-06T17:43:41.407Z,13.43
2023-04-06T17:46:08.543Z,13.30
2023-04-06T17:48:38.148Z,13.41
2023-04-06T17:51:05.606Z,13.37
2023-04-06T17:53:36.818Z,13.24
2023-04-06T17:56:04.765Z,13.17
2023-04-06T17:58:35.317Z,13.12
2023-04-06T18:01:08.386Z,12.92
2023-04-06T18:03:35.771Z,12.89
2023-04-06T18:06:16.869Z,12.88
2023-04-06T18:08:44.165Z,12.81
2023-04-06T18:11:21.438Z,12.73
2023-04-06T18:13:51.516Z,12.80
2023-04-06T18:16:21.127Z,12.63
2023-04-06T18:18:50.949Z,12.67
2023-04-06T18:21:18.204Z,12.57
2023-04-06T18:23:49.959Z,12.69
2023-04-06T18:26:19.821Z,12.69
2023-04-06T18:28:47.474Z,12.58
2023-04-06T18:31:17.231Z,12.70
2023-04-06T18:33:44.915Z,12.46
2023-04-06T18:36:11.844Z,12.48
2023-04-06T18:38:49.203Z,12.47
2023-04-06T18:41:20.695Z,12.37
2023-04-06T18:43:47.796Z,12.13
2023-04-06T18:46:21.117Z,12.00
2023-04-06T18:48:59.661Z,11.79
2023-04-06T18:51:32.773Z,11.92
2023-04-06T18:54:02.358Z,11.80
2023-04-06T18:56:31.810Z,11.76
2023-04-06T18:58:58.779Z,11.83
2023-04-06T19:01:34.102Z,11.73
2023-04-06T19:04:01.672Z,11.56
2023-04-06T19:06:34.028Z,11.35
2023-04-06T19:09:05.062Z,11.46
2023-04-06T19:11:32.500Z,11.55
2023-04-06T19:14:01.921Z,11.42
2023-04-06T19:16:29.127Z,11.33
2023-04-06T19:18:56.491Z,11.33
2023-04-06T19:21:26.309Z,11.54
2023-04-06T19:23:55.449Z,11.24
2023-04-06T19:26:24.232Z,11.25
2023-04-06T19:28:54.228Z,11.26
2023-04-06T19:31:27.951Z,11.33
2023-04-06T19:33:55.674Z,11.27
2023-04-06T19:36:28.335Z,11.04
2023-04-06T19:38:56.028Z,11.21
2023-04-06T19:41:24.124Z,11.11
2023-04-06T19:43:53.734Z,10.95
2023-04-06T19:46:25.628Z,10.92
2023-04-06T19:48:57.252Z,10.80
2023-04-06T19:51:24.264Z,11.02
2023-04-06T19:53:51.370Z,10.92
2023-04-06T19:56:18.379Z,10.64
2023-04-06T19:58:47.330Z,10.60
2023-04-06T20:01:19.795Z,10.58
2023-04-06T20:03:47.118Z,10.77
2023-04-06T20:06:14.247Z,10.74
2023-04-06T20:08:41.501Z,10.96
2023-04-06T20:11:11.159Z,10.93
2023-04-06T20:13:38.493Z,10.92
2023-04-06T20:16:08.223Z,10.64
2023-04-06T20:18:37.596Z,10.51
2023-04-06T20:21:07.757Z,10.51
2023-04-06T20:23:37.643Z,10.31
2023-04-06T20:26:08.629Z,10.37
2023-04-06T20:28:35.777Z,10.52
2023-04-06T20:31:02.776Z,10.32
2023-04-06T20:33:29.875Z,10.27
2023-04-06T20:36:01.409Z,10.25
2023-04-06T20:40:59.764Z,10.16
2023-04-06T20:43:28.933Z,10.37
2023-04-06T20:45:57.805Z,10.27
2023-04-06T20:48:26.046Z,10.31
2023-04-06T20:50:53.129Z,10.38
2023-04-06T20:53:20.961Z,10.31
2023-04-06T20:55:50.363Z,10.13
2023-04-06T20:58:20.701Z,10.14
2023-04-06T21:00:50.812Z,10.29
2023-04-06T21:03:18.259Z,9.94
2023-04-06T21:05:54.397Z,10.20
2023-04-06T21:08:21.553Z,10.04
2023-04-06T21:10:48.496Z,9.93
2023-04-06T21:13:17.880Z,9.69
2023-04-06T21:15:44.942Z,9.66
2023-04-06T21:18:12.449Z,9.75
2023-04-06T21:20:40.083Z,9.44
2023-04-06T21:23:09.435Z,9.44
2023-04-06T21:25:39.497Z,9.54
2023-04-06T21:28:09.085Z,9.44
2023-04-06T21:30:39.909Z,9.73
2023-04-06T21:33:09.576Z,9.65
2023-04-06T21:35:42.785Z,9.59
2023-04-06T21:38:10.458Z,9.51
2023-04-06T21:40:40.066Z,9.64
2023-04-06T21:43:07.277Z,9.72
2023-04-06T21:45:34.269Z,9.68
2023-04-06T21:48:04.351Z,9.58
2023-04-06T21:50:33.897Z,9.35
2023-04-06T21:53:03.146Z,9.38
2023-04-06T21:55:30.063Z,9.37
2023-04-06T21:57:57.237Z,9.45
2023-04-06T22:00:27.369Z,9.38
2023-04-06T22:02:58.987Z,9.43
2023-04-06T22:05:26.318Z,9.54
2023-04-06T22:07:57.254Z,9.55
2023-04-06T22:10:29.592Z,9.53
2023-04-06T22:12:58.978Z,9.13
2023-04-06T22:15:26.743Z,9.16
2023-04-06T22:17:53.847Z,9.23
2023-04-06T22:20:21.093Z,9.01
2023-04-06T22:22:50.792Z,9.03
2023-04-06T22:25:20.192Z,8.90
2023-04-06T22:27:47.082Z,9.00
2023-04-06T22:30:18.622Z,8.73
2023-04-06T22:32:48.030Z,8.97
2023-04-06T22:35:15.370Z,8.78
2023-04-06T22:37:43.733Z,8.58
2023-04-06T22:40:12.204Z,8.56
2023-04-06T22:42:39.432Z,8.82
2023-04-06T22:45:07.170Z,8.52
2023-04-06T22:47:34.332Z,8.77
2023-04-06T22:50:01.466Z,8.68
2023-04-06T22:52:28.844Z,8.60
2023-04-06T22:54:58.084Z,8.62
2023-04-06T22:57:25.469Z,8.46
2023-04-06T22:59:52.777Z,8.45
2023-04-06T23:02:19.912Z,8.40
2023-04-06T23:04:49.455Z,8.39
2023-04-06T23:07:16.577Z,8.27
2023-04-06T23:09:48.151Z,8.35
2023-04-06T23:12:15.591Z,8.20
2023-04-06T23:14:45.057Z,8.13
2023-04-06T23:17:12.705Z,8.25
2023-04-06T23:19:39.955Z,8.18
2023-04-06T23:22:07.007Z,8.19
2023-04-06T23:24:34.077Z,8.20
2023-04-06T23:27:03.178Z,8.26
2023-04-06T23:29:30.439Z,8.14
2023-04-06T23:32:01.123Z,8.13
2023-04-06T23:34:30.204Z,8.04
2023-04-06T23:37:03.005Z,7.99
2023-04-06T23:39:33.152Z,8.29
2023-04-06T23:42:01.541Z,8.25
2023-04-06T23:44:31.990Z,8.08
2023-04-06T23:46:59.110Z,7.84
2023-04-06T23:49:26.178Z,7.93
2023-04-06T23:51:53.201Z,7.77
2023-04-06T23:54:22.633Z,7.96
2023-04-06T23:56:52.127Z,8.03
2023-04-06T23:59:19.252Z,8.03
